Time;durP1;ratioP1;P1;durP2;ratioP2;P2;SDS_P1;SDS_P2;PMS_P1;PMS_P2;Temp;Humidity;BMP_temperature;BMP_pressure;BME280_temperature;BME280_humidity;BME280_pressure;Samples;Min_cycle;Max_cycle;Signal;HPM_P1;HPM_P2
2022/05/26 00:00:19;;;;;;;18.90;17.70;;;14.60;99.90;;;;;;6194606;23;20510;-80
2022/05/26 00:02:47;;;;;;;18.97;17.40;;;14.60;99.90;;;;;;6194827;23;20526;-80
2022/05/26 00:05:15;;;;;;;17.63;16.43;;;14.60;99.90;;;;;;6231988;23;20741;-80
2022/05/26 00:07:45;;;;;;;17.10;15.70;;;14.60;99.90;;;;;;6194525;23;20439;-80
2022/05/26 00:10:13;;;;;;;17.87;16.47;;;14.60;99.90;;;;;;6221281;23;20434;-81
2022/05/26 00:12:41;;;;;;;16.87;15.67;;;14.60;99.90;;;;;;6231408;23;20454;-81
2022/05/26 00:15:11;;;;;;;19.23;17.80;;;14.60;99.90;;;;;;6194668;23;20418;-81
2022/05/26 00:17:40;;;;;;;19.90;18.60;;;14.60;99.90;;;;;;6194107;23;20478;-81
2022/05/26 00:20:09;;;;;;;18.57;17.17;;;14.60;99.90;;;;;;6193785;23;20437;-81
2022/05/26 00:22:37;;;;;;;19.07;17.67;;;14.60;99.90;;;;;;6193635;23;20525;-81
2022/05/26 00:25:07;;;;;;;19.00;17.80;;;14.60;99.90;;;;;;6224798;23;20399;-81
2022/05/26 00:27:35;;;;;;;19.90;18.30;;;14.60;99.90;;;;;;6194188;23;20532;-80
2022/05/26 00:30:04;;;;;;;19.97;18.57;;;14.60;99.90;;;;;;6193101;23;20489;-80
2022/05/26 00:32:32;;;;;;;19.63;17.83;;;14.50;99.90;;;;;;6193081;23;20946;-80
2022/05/26 00:35:00;;;;;;;17.33;16.13;;;14.50;99.90;;;;;;6230501;23;20406;-81
2022/05/26 00:37:29;;;;;;;17.13;15.63;;;14.50;99.90;;;;;;6193455;23;20421;-80
2022/05/26 00:39:57;;;;;;;19.93;18.03;;;14.50;99.90;;;;;;6193379;23;20402;-80
2022/05/26 00:42:27;;;;;;;17.87;16.63;;;14.50;99.90;;;;;;6218289;23;20492;-81
2022/05/26 00:44:55;;;;;;;20.30;18.80;;;14.50;99.90;;;;;;6229743;23;20881;-81
2022/05/26 00:47:27;;;;;;;17.70;16.40;;;14.50;99.90;;;;;;6194429;23;20454;-81
2022/05/26 00:49:59;;;;;;;19.73;17.80;;;14.50;99.90;;;;;;6218607;23;20525;-80
2022/05/26 00:52:31;;;;;;;20.07;18.40;;;14.60;99.90;;;;;;6193003;23;20450;-80
2022/05/26 00:55:03;;;;;;;17.70;16.40;;;14.50;99.90;;;;;;6192959;23;20406;-80
2022/05/26 00:57:38;;;;;;;19.70;18.10;;;14.60;99.90;;;;;;6192879;23;20493;-80
2022/05/26 01:00:09;;;;;;;18.80;17.40;;;14.60;99.90;;;;;;6192865;23;20445;-80
2022/05/26 01:02:44;;;;;;;19.67;18.17;;;14.60;99.90;;;;;;6193335;23;20767;-80
2022/05/26 01:05:17;;;;;;;19.63;17.93;;;14.60;99.90;;;;;;6192605;23;20538;-80
2022/05/26 01:07:46;;;;;;;20.60;18.90;;;14.60;99.90;;;;;;6193520;23;20526;-80
2022/05/26 01:10:15;;;;;;;19.43;17.73;;;14.60;99.90;;;;;;6192449;23;20505;-80
2022/05/26 01:12:45;;;;;;;20.63;19.03;;;14.60;99.90;;;;;;6192337;23;20442;-80
2022/05/26 01:15:16;;;;;;;20.20;18.70;;;14.60;99.90;;;;;;6192892;23;20500;-80
2022/05/26 01:17:52;;;;;;;18.33;16.83;;;14.60;99.90;;;;;;6230850;23;20810;-81
2022/05/26 01:20:32;;;;;;;19.93;18.33;;;14.60;99.90;;;;;;6192042;23;20492;-80
2022/05/26 01:23:27;;;;;;;20.00;18.50;;;14.50;99.90;;;;;;6192878;23;20517;-80
2022/05/26 01:26:41;;;;;;;22.33;20.73;;;14.50;99.90;;;;;;6196073;23;20440;-80
2022/05/26 01:29:51;;;;;;;22.70;21.00;;;14.60;99.90;;;;;;6130132;23;20406;-80
2022/05/26 01:32:26;;;;;;;21.43;19.60;;;14.50;99.90;;;;;;6194621;23;20927;-80
2022/05/26 01:35:04;;;;;;;21.50;20.00;;;14.50;99.90;;;;;;6194480;23;20444;-80
2022/05/26 01:37:41;;;;;;;21.63;19.93;;;14.50;99.90;;;;;;6231326;23;20377;-80
2022/05/26 01:40:18;;;;;;;20.77;19.10;;;14.50;99.90;;;;;;6231833;23;20449;-80
2022/05/26 01:42:53;;;;;;;21.80;19.90;;;14.50;99.90;;;;;;6195232;23;20438;-81
2022/05/26 01:45:33;;;;;;;22.83;21.03;;;14.50;99.90;;;;;;6232619;23;20729;-81
2022/05/26 01:48:13;;;;;;;22.10;20.40;;;14.50;99.90;;;;;;6193960;23;20438;-81
2022/05/26 01:50:45;;;;;;;21.90;20.20;;;14.50;99.90;;;;;;6193630;23;20506;-81
2022/05/26 01:53:28;;;;;;;22.70;21.00;;;14.40;99.90;;;;;;6194409;23;20445;-80
2022/05/26 01:56:03;;;;;;;21.90;20.30;;;14.40;99.90;;;;;;6235486;23;20390;-81
2022/05/26 01:58:36;;;;;;;23.27;21.30;;;14.50;99.90;;;;;;6198037;23;20869;-81
2022/05/26 02:01:12;;;;;;;23.47;21.70;;;14.40;99.90;;;;;;6198509;23;20414;-81
2022/05/26 02:03:44;;;;;;;23.87;21.90;;;14.40;99.90;;;;;;6198037;23;20446;-81
2022/05/26 02:06:20;;;;;;;22.23;20.63;;;14.40;99.90;;;;;;6235083;23;20454;-81
2022/05/26 02:08:53;;;;;;;22.60;20.40;;;14.40;99.90;;;;;;6197900;23;20454;-81
2022/05/26 02:11:23;;;;;;;20.83;19.23;;;14.40;99.90;;;;;;6197570;23;20446;-81
2022/05/26 02:13:55;;;;;;;21.03;19.40;;;14.40;99.90;;;;;;6197092;23;20438;-81
2022/05/26 02:16:31;;;;;;;22.43;20.73;;;14.40;99.90;;;;;;6198048;23;20445;-81
2022/05/26 02:19:09;;;;;;;22.53;20.73;;;14.40;99.90;;;;;;6224811;23;20915;-81
2022/05/26 02:21:43;;;;;;;23.67;21.43;;;14.40;99.90;;;;;;6197683;23;20920;-81
2022/05/26 02:24:17;;;;;;;21.20;19.50;;;14.40;99.90;;;;;;6197630;23;20434;-80
2022/05/26 02:26:45;;;;;;;21.97;20.27;;;14.40;99.90;;;;;;6197080;23;20426;-80
2022/05/26 02:31:59;;;;;;;23.90;21.90;;;14.40;99.90;;;;;;6196011;23;20417;-80
2022/05/26 02:34:29;;;;;;;22.60;20.90;;;14.40;99.90;;;;;;6196403;23;20466;-80
2022/05/26 02:36:59;;;;;;;20.37;18.87;;;14.40;99.90;;;;;;6195515;23;20510;-80
2022/05/26 02:39:27;;;;;;;22.07;20.37;;;14.30;99.90;;;;;;6196279;23;20494;-80
2022/05/26 02:41:58;;;;;;;19.87;18.27;;;14.30;99.90;;;;;;6233343;23;20411;-81
2022/05/26 02:44:28;;;;;;;22.87;21.00;;;14.30;99.90;;;;;;6196667;23;20470;-81
2022/05/26 02:47:14;;;;;;;22.17;20.37;;;14.30;99.90;;;;;;6195457;23;20414;-80
2022/05/26 02:50:01;;;;;;;19.97;18.37;;;14.30;99.90;;;;;;6196235;23;20886;-80
2022/05/26 02:52:35;;;;;;;20.77;19.10;;;14.30;99.90;;;;;;6196012;23;20533;-80
2022/05/26 02:55:14;;;;;;;19.70;18.10;;;14.20;99.90;;;;;;6195902;23;20605;-80
2022/05/26 02:57:50;;;;;;;17.60;16.30;;;14.20;99.90;;;;;;6196570;23;20417;-81
2022/05/26 03:00:24;;;;;;;17.20;15.70;;;14.20;99.90;;;;;;6196514;23;20425;-80
2022/05/26 03:02:58;;;;;;;16.80;15.33;;;14.10;99.90;;;;;;6195700;23;20434;-81
2022/05/26 03:05:31;;;;;;;16.33;14.93;;;14.10;99.90;;;;;;6195582;23;20418;-81
2022/05/26 03:08:02;;;;;;;17.50;16.07;;;14.10;99.90;;;;;;6195351;23;20459;-80
2022/05/26 03:10:33;;;;;;;16.33;15.03;;;14.10;99.90;;;;;;6222073;23;20383;-80
2022/05/26 03:13:01;;;;;;;14.07;12.83;;;14.10;99.90;;;;;;6195549;23;20558;-80
2022/05/26 03:15:31;;;;;;;16.13;14.73;;;14.10;99.90;;;;;;6222943;23;20498;-80
2022/05/26 03:18:01;;;;;;;15.43;14.23;;;14.10;99.90;;;;;;6195683;23;20529;-80
2022/05/26 03:20:31;;;;;;;16.13;14.93;;;14.10;99.90;;;;;;6222775;23;20391;-80
2022/05/26 03:22:59;;;;;;;15.10;13.70;;;14.10;99.90;;;;;;6195346;23;20538;-80
2022/05/26 03:25:27;;;;;;;15.57;14.23;;;14.10;99.90;;;;;;6224517;23;20399;-80
2022/05/26 03:27:55;;;;;;;15.70;14.47;;;14.10;99.90;;;;;;6232170;23;20425;-81
2022/05/26 03:30:24;;;;;;;15.23;13.73;;;14.00;99.90;;;;;;6231162;23;20458;-81
2022/05/26 03:32:53;;;;;;;15.77;14.23;;;14.10;99.90;;;;;;6194914;23;20465;-81
2022/05/26 03:40:55;;;;;;;16.07;14.60;;;14.00;99.90;;;;;;6194312;23;20513;-81
2022/05/26 03:43:24;;;;;;;16.77;15.53;;;14.00;99.90;;;;;;6193856;23;20449;-80
2022/05/26 03:45:53;;;;;;;14.67;13.10;;;14.00;99.90;;;;;;6194649;23;20411;-81
2022/05/26 03:48:21;;;;;;;14.93;13.63;;;14.00;99.90;;;;;;6193101;23;20957;-81
2022/05/26 03:50:49;;;;;;;15.20;13.77;;;14.00;99.90;;;;;;6221136;23;20399;-81
2022/05/26 03:53:19;;;;;;;15.90;14.50;;;14.00;99.90;;;;;;6220611;23;20433;-81
2022/05/26 03:55:47;;;;;;;14.97;13.33;;;14.00;99.90;;;;;;6219545;23;20747;-81
2022/05/26 03:58:17;;;;;;;18.37;16.50;;;14.00;99.90;;;;;;6194279;23;20421;-80
2022/05/26 04:00:45;;;;;;;14.80;13.50;;;14.00;99.90;;;;;;6221485;23;20418;-80
2022/05/26 04:03:14;;;;;;;16.57;15.03;;;14.00;99.90;;;;;;6193707;23;20477;-80
2022/05/26 04:05:42;;;;;;;16.90;15.20;;;14.00;99.90;;;;;;6193885;23;20419;-81
2022/05/26 04:08:10;;;;;;;18.93;17.00;;;14.00;99.90;;;;;;6193530;23;20442;-80
2022/05/26 04:10:40;;;;;;;17.70;15.90;;;14.00;99.90;;;;;;6221065;23;20438;-80
2022/05/26 04:13:09;;;;;;;18.63;16.57;;;14.00;99.90;;;;;;6193555;23;20434;-81
2022/05/26 04:15:38;;;;;;;19.00;17.27;;;14.00;99.90;;;;;;6193467;23;20470;-81
2022/05/26 04:18:06;;;;;;;18.93;17.13;;;14.10;99.90;;;;;;6220703;23;20403;-80
2022/05/26 04:20:36;;;;;;;18.00;16.37;;;14.10;99.90;;;;;;6230489;23;20774;-81
2022/05/26 04:23:04;;;;;;;20.03;16.30;;;14.10;99.90;;;;;;6221214;23;20435;-81
2022/05/26 04:25:33;;;;;;;20.33;18.17;;;14.10;99.90;;;;;;6193092;23;20418;-81
2022/05/26 04:28:02;;;;;;;18.57;16.90;;;14.20;99.90;;;;;;6193284;23;20850;-81
2022/05/26 04:30:30;;;;;;;18.73;16.80;;;14.20;99.90;;;;;;6192969;23;20917;-81
2022/05/26 04:32:58;;;;;;;19.60;17.70;;;14.20;99.90;;;;;;6220551;23;20427;-81
2022/05/26 04:35:27;;;;;;;19.07;17.37;;;14.20;99.90;;;;;;6197172;23;20415;-82
2022/05/26 04:37:55;;;;;;;20.13;17.63;;;14.20;99.90;;;;;;6223422;23;20446;-81
2022/05/26 04:40:24;;;;;;;22.00;16.93;;;14.20;99.90;;;;;;6232443;23;20410;-82
2022/05/26 04:42:53;;;;;;;19.73;17.73;;;14.30;99.90;;;;;;6194790;23;20441;-81
2022/05/26 04:45:23;;;;;;;20.57;18.07;;;14.30;99.90;;;;;;6195231;23;20418;-82
2022/05/26 04:47:52;;;;;;;20.10;16.83;;;14.30;99.90;;;;;;6194860;23;20828;-81
2022/05/26 04:50:21;;;;;;;18.67;16.70;;;14.30;99.90;;;;;;6222363;23;20457;-81
2022/05/26 04:52:49;;;;;;;18.43;16.30;;;14.30;99.90;;;;;;6233058;23;20445;-81
2022/05/26 04:55:17;;;;;;;20.83;18.57;;;14.40;99.90;;;;;;6223785;23;20431;-81
2022/05/26 04:57:46;;;;;;;19.70;17.90;;;14.40;99.90;;;;;;6197444;23;20458;-81
2022/05/26 05:00:16;;;;;;;23.73;18.20;;;14.40;99.90;;;;;;6195459;23;20411;-81
2022/05/26 05:02:46;;;;;;;21.00;19.00;;;14.40;99.90;;;;;;6195451;23;20434;-81
2022/05/26 05:05:14;;;;;;;21.33;17.43;;;14.50;99.90;;;;;;6197254;23;20415;-81
2022/05/26 05:07:42;;;;;;;23.87;21.70;;;14.50;99.90;;;;;;6195983;23;20418;-81
2022/05/26 05:10:11;;;;;;;23.47;20.77;;;14.50;99.90;;;;;;6196035;23;20455;-81
2022/05/26 05:12:40;;;;;;;21.73;19.43;;;14.50;99.90;;;;;;6231700;23;20438;-81
2022/05/26 05:15:13;;;;;;;19.27;17.20;;;14.60;99.90;;;;;;6231481;23;20394;-81
2022/05/26 05:17:42;;;;;;;23.73;20.23;;;14.60;99.90;;;;;;6195508;23;20446;-81
2022/05/26 05:20:12;;;;;;;23.00;19.27;;;14.70;99.90;;;;;;6194790;23;20415;-81
2022/05/26 05:22:44;;;;;;;21.57;18.50;;;14.70;99.90;;;;;;6194007;23;20440;-81
2022/05/26 05:25:18;;;;;;;28.23;18.67;;;14.80;99.90;;;;;;6231830;23;20384;-81
2022/05/26 05:27:51;;;;;;;23.23;20.83;;;14.80;99.90;;;;;;6195090;23;20410;-81
2022/05/26 05:30:22;;;;;;;21.57;19.43;;;14.80;99.90;;;;;;6194001;23;20513;-81
2022/05/26 05:32:53;;;;;;;21.03;18.10;;;14.90;99.90;;;;;;6193360;23;20442;-81
2022/05/26 05:35:29;;;;;;;23.50;19.20;;;14.90;99.90;;;;;;6220358;23;20769;-81
2022/05/26 05:37:58;;;;;;;21.30;18.13;;;14.90;99.90;;;;;;6194155;23;20801;-81
2022/05/26 05:40:26;;;;;;;21.73;18.17;;;14.90;99.90;;;;;;6194318;23;20505;-81
2022/05/26 05:43:00;;;;;;;20.20;17.03;;;15.00;99.90;;;;;;6194633;23;20464;-82
2022/05/26 05:45:29;;;;;;;18.00;15.77;;;15.10;99.90;;;;;;6224513;23;20438;-81
2022/05/26 05:47:57;;;;;;;18.97;16.87;;;15.10;99.90;;;;;;6199728;23;20413;-81
2022/05/26 05:50:27;;;;;;;21.27;15.10;;;15.30;99.90;;;;;;6223653;23;20431;-81
2022/05/26 05:52:55;;;;;;;19.40;15.40;;;15.30;99.90;;;;;;6224475;23;20433;-81
2022/05/26 05:55:24;;;;;;;17.40;15.70;;;15.40;99.90;;;;;;6198657;23;20486;-81
2022/05/26 05:57:52;;;;;;;16.10;14.00;;;15.50;99.90;;;;;;6225026;23;20411;-82
2022/05/26 06:00:21;;;;;;;18.27;15.50;;;15.70;99.90;;;;;;6221594;23;20442;-81
2022/05/26 06:02:56;;;;;;;22.33;15.10;;;15.90;99.90;;;;;;6221317;23;20448;-81
2022/05/26 06:05:25;;;;;;;15.90;14.20;;;16.20;99.90;;;;;;6221594;23;20419;-81
2022/05/26 06:07:54;;;;;;;16.17;13.50;;;16.30;99.90;;;;;;6232296;23;20377;-81
2022/05/26 06:10:23;;;;;;;18.43;15.63;;;16.40;99.90;;;;;;6234172;23;20405;-82
2022/05/26 06:12:52;;;;;;;18.87;14.60;;;16.50;99.90;;;;;;6197821;23;20473;-82
2022/05/26 06:15:20;;;;;;;21.23;14.30;;;16.60;99.90;;;;;;6235286;23;20449;-81
2022/05/26 06:17:48;;;;;;;14.30;12.37;;;16.90;99.90;;;;;;6197391;23;20407;-82
2022/05/26 06:20:17;;;;;;;12.40;11.10;;;17.10;99.90;;;;;;6195938;23;20389;-82
2022/05/26 06:22:48;;;;;;;19.83;13.30;;;17.30;99.90;;;;;;6196737;23;20416;-82
2022/05/26 06:25:19;;;;;;;14.13;12.63;;;17.50;99.90;;;;;;6197865;23;20429;-82
2022/05/26 06:30:33;;;;;;;18.57;12.00;;;17.80;99.90;;;;;;6234323;23;20485;-82
2022/05/26 06:38:39;;;;;;;14.80;12.20;;;17.50;99.90;;;;;;6196870;23;20417;-82
2022/05/26 06:43:55;;;;;;;13.67;12.20;;;17.70;99.90;;;;;;6232892;23;20424;-82
2022/05/26 06:46:23;;;;;;;13.70;12.40;;;17.70;99.90;;;;;;6196817;23;20414;-83
2022/05/26 06:48:52;;;;;;;14.43;12.97;;;17.70;99.90;;;;;;6233414;23;20711;-83
2022/05/26 06:51:22;;;;;;;12.23;10.83;;;17.80;99.90;;;;;;6196659;23;20479;-82
2022/05/26 06:53:52;;;;;;;12.77;11.57;;;17.80;99.90;;;;;;6196303;23;20744;-82
2022/05/26 06:56:20;;;;;;;13.80;12.13;;;18.00;99.90;;;;;;6195788;23;20415;-82
2022/05/26 06:58:48;;;;;;;12.60;11.40;;;18.30;99.90;;;;;;6195807;23;20426;-82
2022/05/26 07:01:17;;;;;;;12.60;11.40;;;18.40;99.90;;;;;;6196201;23;20453;-82
2022/05/26 07:03:45;;;;;;;11.83;10.70;;;18.60;99.90;;;;;;6221465;23;20426;-82
2022/05/26 07:06:16;;;;;;;13.80;10.50;;;18.70;99.90;;;;;;6194215;23;20411;-81
2022/05/26 07:08:45;;;;;;;11.13;10.03;;;18.90;99.90;;;;;;6195237;23;20434;-82
2022/05/26 07:11:16;;;;;;;13.63;12.23;;;19.00;99.90;;;;;;6193395;23;20525;-81
2022/05/26 07:13:44;;;;;;;12.07;11.07;;;19.10;99.90;;;;;;6218745;23;20510;-83
2022/05/26 07:16:15;;;;;;;11.90;10.90;;;18.90;99.90;;;;;;6192605;23;20494;-81
2022/05/26 07:18:43;;;;;;;10.80;9.73;;;18.90;99.90;;;;;;6192522;23;20417;-82
2022/05/26 07:21:12;;;;;;;10.40;9.27;;;18.70;99.90;;;;;;6192597;23;20421;-82
2022/05/26 07:23:41;;;;;;;9.93;8.80;;;18.80;99.90;;;;;;6191553;23;20937;-81
2022/05/26 07:26:11;;;;;;;15.80;9.27;;;18.90;99.90;;;;;;6191746;23;20822;-82
2022/05/26 07:28:41;;;;;;;10.13;9.33;;;19.10;99.90;;;;;;6192020;23;20440;-82
2022/05/26 07:31:10;;;;;;;10.20;9.13;;;19.20;99.90;;;;;;6191657;23;20440;-82
2022/05/26 07:33:38;;;;;;;9.87;8.27;;;19.20;99.90;;;;;;6191809;23;20891;-83
2022/05/26 07:36:08;;;;;;;11.17;10.00;;;19.10;99.90;;;;;;6191430;23;20437;-82
2022/05/26 07:41:25;;;;;;;9.23;8.43;;;19.30;99.90;;;;;;6191942;23;20411;-81
2022/05/26 07:43:59;;;;;;;8.83;6.60;;;19.40;99.60;;;;;;6191688;23;20434;-79
2022/05/26 07:46:27;;;;;;;9.93;9.13;;;19.40;99.20;;;;;;6218233;23;20391;-78
2022/05/26 07:48:56;;;;;;;9.30;8.40;;;19.40;98.80;;;;;;6217790;23;20928;-80
2022/05/26 07:51:24;;;;;;;8.73;7.83;;;19.40;98.60;;;;;;6190881;23;20775;-80
2022/05/26 07:53:52;;;;;;;11.47;7.40;;;19.40;98.70;;;;;;6191657;23;20430;-82
2022/05/26 07:56:22;;;;;;;9.77;8.77;;;19.50;98.40;;;;;;6195046;23;20445;-82
2022/05/26 07:58:50;;;;;;;8.97;8.07;;;19.60;98.00;;;;;;6196779;23;20422;-81
2022/05/26 08:01:20;;;;;;;9.57;8.67;;;19.70;97.80;;;;;;6198140;23;20477;-81
2022/05/26 08:03:53;;;;;;;7.87;7.17;;;19.80;97.60;;;;;;6233550;23;20414;-82
2022/05/26 08:06:22;;;;;;;8.37;7.27;;;19.90;97.70;;;;;;6223317;23;20481;-81
2022/05/26 08:08:50;;;;;;;8.23;6.87;;;20.00;97.40;;;;;;6231975;23;20395;-81
2022/05/26 08:11:19;;;;;;;8.70;7.80;;;20.00;97.10;;;;;;6220687;23;20442;-82
2022/05/26 08:13:47;;;;;;;9.23;8.43;;;20.00;96.80;;;;;;6192854;23;20453;-81
2022/05/26 08:16:16;;;;;;;8.37;7.73;;;20.10;96.50;;;;;;6194050;23;20418;-81
2022/05/26 08:18:45;;;;;;;8.10;7.50;;;20.20;96.00;;;;;;6193814;23;20746;-80
2022/05/26 08:21:18;;;;;;;8.90;8.20;;;20.20;95.80;;;;;;6194950;23;20415;-81
2022/05/26 08:23:47;;;;;;;8.37;7.63;;;20.20;95.60;;;;;;6195761;23;20434;-80
2022/05/26 08:26:15;;;;;;;8.70;8.00;;;20.20;95.20;;;;;;6196330;23;20427;-82
2022/05/26 08:28:43;;;;;;;9.23;8.30;;;20.10;95.10;;;;;;6230746;23;20403;-80
2022/05/26 08:31:13;;;;;;;9.20;8.37;;;20.00;95.20;;;;;;6193670;23;20493;-82
2022/05/26 08:33:42;;;;;;;8.60;6.90;;;20.10;95.50;;;;;;6222631;23;20430;-82
2022/05/26 08:36:13;;;;;;;9.70;9.00;;;20.10;95.20;;;;;;6194974;23;20914;-81
2022/05/26 08:38:41;;;;;;;8.70;7.83;;;20.10;95.10;;;;;;6230968;23;20379;-80
2022/05/26 08:41:16;;;;;;;8.50;7.63;;;19.90;94.90;;;;;;6193326;23;20449;-82
2022/05/26 08:43:48;;;;;;;9.17;8.40;;;19.80;95.00;;;;;;6194012;23;20554;-81
2022/05/26 08:46:19;;;;;;;9.10;8.10;;;19.70;95.00;;;;;;6219951;23;20395;-81
2022/05/26 08:48:56;;;;;;;8.40;7.70;;;19.60;95.00;;;;;;6194358;23;20418;-82
2022/05/26 08:51:42;;;;;;;8.73;7.93;;;19.50;95.00;;;;;;6192020;23;20430;-81
2022/05/26 08:54:17;;;;;;;9.23;8.33;;;19.50;95.00;;;;;;6192820;23;20444;-81
2022/05/26 08:56:48;;;;;;;9.23;8.33;;;19.50;94.80;;;;;;6191647;23;20890;-80
2022/05/26 08:59:18;;;;;;;10.80;9.77;;;19.60;94.90;;;;;;6219222;23;20473;-81
2022/05/26 09:01:46;;;;;;;9.50;8.20;;;19.60;94.90;;;;;;6228513;23;20461;-81
2022/05/26 09:04:14;;;;;;;10.20;9.40;;;19.60;94.80;;;;;;6193931;23;20457;-80
2022/05/26 09:15:10;;;;;;;10.10;9.30;;;19.60;94.40;;;;;;6228117;23;20434;-80
2022/05/26 09:17:39;;;;;;;9.43;8.63;;;19.50;94.30;;;;;;6192684;23;20437;-82
2022/05/26 09:20:35;;;;;;;9.80;8.93;;;19.40;94.30;;;;;;6231853;23;20395;-80
2022/05/26 09:23:28;;;;;;;9.40;8.53;;;19.50;94.30;;;;;;6194735;23;21024;-81
2022/05/26 09:26:06;;;;;;;8.83;8.10;;;19.50;94.40;;;;;;6188446;23;20461;-81
2022/05/26 09:28:43;;;;;;;8.33;7.63;;;19.50;94.30;;;;;;6194987;23;20446;-81
2022/05/26 09:31:21;;;;;;;8.57;7.80;;;19.50;94.30;;;;;;6199633;23;20445;-81
2022/05/26 09:34:09;;;;;;;8.57;7.87;;;19.50;94.30;;;;;;6229781;23;20430;-80
2022/05/26 09:36:43;;;;;;;8.60;8.00;;;19.60;94.40;;;;;;6231710;23;20399;-80
2022/05/26 09:39:14;;;;;;;9.23;8.33;;;19.70;94.40;;;;;;6205684;23;20470;-81
2022/05/26 09:41:46;;;;;;;9.57;8.50;;;19.70;94.30;;;;;;6202661;23;20441;-82
2022/05/26 09:44:29;;;;;;;9.13;7.60;;;19.60;94.40;;;;;;6228834;23;20426;-81
2022/05/26 09:47:00;;;;;;;8.27;7.50;;;19.60;94.50;;;;;;6243323;23;20414;-81
2022/05/26 09:49:37;;;;;;;9.20;8.60;;;19.70;94.30;;;;;;6204211;23;20748;-80
2022/05/26 09:52:14;;;;;;;9.53;8.83;;;19.70;94.30;;;;;;6238250;23;20415;-80
2022/05/26 09:54:44;;;;;;;8.77;8.17;;;19.80;94.30;;;;;;6228547;23;20398;-81
2022/05/26 09:57:19;;;;;;;8.63;7.80;;;19.80;94.10;;;;;;6239279;23;20415;-80
2022/05/26 09:59:48;;;;;;;8.53;7.70;;;19.90;94.00;;;;;;6201621;23;20406;-80
2022/05/26 10:02:21;;;;;;;9.10;8.40;;;19.80;94.00;;;;;;6203813;23;20898;-81
2022/05/26 10:04:58;;;;;;;9.60;8.80;;;19.80;93.90;;;;;;6204267;23;20493;-80
2022/05/26 10:07:50;;;;;;;9.23;8.37;;;19.70;93.80;;;;;;6229423;23;20407;-81
2022/05/26 10:10:25;;;;;;;10.83;9.83;;;19.70;94.00;;;;;;6229906;23;20421;-81
2022/05/26 10:13:16;;;;;;;9.10;8.20;;;19.70;94.10;;;;;;6201785;23;20445;-81
2022/05/26 10:15:55;;;;;;;8.80;8.00;;;19.80;94.10;;;;;;6201933;23;20418;-81
2022/05/26 10:18:36;;;;;;;9.67;8.60;;;19.90;94.10;;;;;;6228479;23;20395;-81
2022/05/26 10:21:10;;;;;;;8.53;7.50;;;20.00;94.00;;;;;;6238719;23;20379;-81
2022/05/26 10:23:51;;;;;;;8.80;8.10;;;20.10;94.00;;;;;;6238922;23;20429;-81
2022/05/26 10:26:29;;;;;;;8.20;7.60;;;20.20;93.90;;;;;;6202309;23;20796;-81
2022/05/26 10:29:15;;;;;;;8.50;7.70;;;20.40;93.80;;;;;;6200893;23;20457;-81
2022/05/26 10:31:56;;;;;;;8.10;7.50;;;20.50;93.90;;;;;;6201082;23;20449;-82
2022/05/26 10:34:47;;;;;;;8.63;8.03;;;20.70;94.00;;;;;;6202183;23;20411;-82
2022/05/26 10:37:27;;;;;;;9.57;8.83;;;20.80;94.10;;;;;;6202337;23;20802;-82
2022/05/26 10:40:21;;;;;;;9.10;8.40;;;20.80;93.60;;;;;;6204009;23;20414;-81
2022/05/26 10:42:58;;;;;;;9.80;9.07;;;20.80;93.40;;;;;;6202070;23;20434;-81
2022/05/26 10:45:31;;;;;;;8.57;7.93;;;20.60;93.30;;;;;;6200044;23;20406;-80
2022/05/26 10:48:04;;;;;;;9.20;8.50;;;20.50;93.20;;;;;;6200176;23;20738;-82
2022/05/26 10:50:40;;;;;;;8.27;7.47;;;20.50;93.20;;;;;;6201853;23;20411;-82
2022/05/26 10:53:16;;;;;;;9.17;8.37;;;20.40;93.20;;;;;;6228659;23;20442;-80
2022/05/26 10:55:52;;;;;;;8.23;7.53;;;20.40;92.90;;;;;;6202281;23;20414;-82
2022/05/26 10:58:27;;;;;;;8.70;7.80;;;20.40;92.90;;;;;;6199865;23;20750;-81
2022/05/26 11:01:00;;;;;;;9.47;8.70;;;20.50;92.60;;;;;;6200460;23;20418;-81
2022/05/26 11:03:35;;;;;;;7.37;6.83;;;20.50;92.60;;;;;;6196730;23;20441;-82
2022/05/26 11:06:09;;;;;;;8.43;7.83;;;20.60;92.70;;;;;;6202620;23;20449;-82
2022/05/26 11:08:41;;;;;;;8.93;8.23;;;20.70;92.70;;;;;;6202127;23;20902;-82
2022/05/26 11:11:17;;;;;;;8.27;7.57;;;20.70;92.60;;;;;;6201915;23;20869;-82
2022/05/26 11:13:54;;;;;;;8.70;7.70;;;20.70;92.50;;;;;;6200349;23;20951;-80
2022/05/26 11:19:31;;;;;;;8.23;7.53;;;20.70;92.30;;;;;;6228301;23;20383;-81
2022/05/26 11:22:01;;;;;;;9.10;8.37;;;20.60;92.40;;;;;;6199403;23;20425;-81
2022/05/26 11:24:29;;;;;;;8.50;7.90;;;20.60;92.30;;;;;;6199030;23;20414;-81
2022/05/26 11:27:03;;;;;;;8.17;7.37;;;20.50;92.20;;;;;;6235195;23;20437;-80
2022/05/26 11:29:37;;;;;;;8.50;7.80;;;20.40;92.20;;;;;;6199672;23;20407;-81
2022/05/26 11:38:01;;;;;;;9.00;8.10;;;20.20;91.80;;;;;;6197508;23;20443;-81
2022/05/26 11:40:36;;;;;;;8.50;7.80;;;20.10;91.80;;;;;;6235630;23;20429;-80
2022/05/26 11:43:07;;;;;;;9.50;8.77;;;20.10;91.90;;;;;;6238525;23;20421;-82
2022/05/26 11:45:49;;;;;;;8.97;7.87;;;20.00;91.90;;;;;;6201303;23;20870;-82
2022/05/26 11:48:40;;;;;;;9.30;8.60;;;20.00;91.90;;;;;;6199704;23;20415;-81
2022/05/26 11:51:27;;;;;;;10.93;10.13;;;20.00;91.80;;;;;;6213533;23;20414;-82
2022/05/26 11:53:56;;;;;;;7.97;7.37;;;19.90;91.80;;;;;;6228932;23;20430;-82
2022/05/26 11:56:49;;;;;;;8.67;8.07;;;19.90;91.80;;;;;;6238084;23;20805;-80
2022/05/26 11:59:46;;;;;;;9.10;8.50;;;19.90;91.80;;;;;;6197237;23;20433;-80
2022/05/26 12:02:32;;;;;;;8.87;8.10;;;19.90;91.90;;;;;;6200507;23;20402;-80
2022/05/26 12:05:33;;;;;;;8.60;8.00;;;19.80;92.00;;;;;;6195952;23;20419;-80
2022/05/26 12:08:06;;;;;;;9.50;8.70;;;19.90;92.10;;;;;;6196347;23;20406;-81
2022/05/26 12:10:40;;;;;;;7.43;6.90;;;20.00;92.20;;;;;;6225991;23;20387;-81
2022/05/26 12:13:33;;;;;;;8.53;7.83;;;20.10;92.20;;;;;;6225446;23;20446;-81
2022/05/26 12:16:29;;;;;;;9.20;8.40;;;20.30;92.40;;;;;;6199138;23;20418;-80
2022/05/26 12:19:01;;;;;;;9.27;8.57;;;20.40;92.10;;;;;;6197274;23;20411;-81
2022/05/26 12:21:47;;;;;;;7.60;7.00;;;20.40;92.20;;;;;;6225192;23;20387;-80
2022/05/26 12:24:50;;;;;;;8.73;8.13;;;20.40;92.10;;;;;;6197750;23;20465;-80
2022/05/26 12:28:00;;;;;;;9.00;8.30;;;20.30;91.90;;;;;;6195708;23;20800;-80
2022/05/26 12:30:38;;;;;;;8.80;8.17;;;20.30;92.00;;;;;;6079693;23;20730;-80
2022/05/26 12:33:35;;;;;;;8.60;7.97;;;20.40;92.10;;;;;;6189426;23;20453;-80
2022/05/26 12:36:21;;;;;;;10.23;9.23;;;20.40;92.00;;;;;;6198604;23;20411;-81
2022/05/26 12:39:18;;;;;;;9.73;8.93;;;20.40;91.80;;;;;;6236060;23;20387;-80
2022/05/26 12:41:52;;;;;;;8.70;7.90;;;20.50;91.90;;;;;;6222812;23;20491;-80
2022/05/26 12:45:03;;;;;;;10.53;9.73;;;20.60;91.90;;;;;;6197148;23;20893;-80
2022/05/26 12:47:54;;;;;;;8.83;8.23;;;20.60;92.10;;;;;;6177949;23;20417;-80
2022/05/26 12:50:24;;;;;;;9.63;8.83;;;20.60;91.60;;;;;;6196933;23;20441;-81
2022/05/26 12:53:08;;;;;;;9.67;8.93;;;20.50;91.50;;;;;;6196467;23;20514;-81
2022/05/26 12:55:42;;;;;;;10.00;9.20;;;20.40;91.60;;;;;;6198594;23;20433;-80
2022/05/26 12:58:15;;;;;;;8.90;8.20;;;20.40;91.60;;;;;;6235799;23;20411;-80
2022/05/26 13:00:45;;;;;;;9.10;8.40;;;20.40;91.60;;;;;;6198939;23;20411;-80
2022/05/26 13:03:23;;;;;;;8.70;8.00;;;20.40;91.60;;;;;;6199043;23;20439;-80
2022/05/26 13:06:00;;;;;;;9.87;9.07;;;20.40;91.60;;;;;;6198640;23;20411;-81
2022/05/26 13:08:36;;;;;;;11.83;8.40;;;20.40;91.50;;;;;;6197599;23;20406;-80
2022/05/26 13:11:04;;;;;;;9.50;8.80;;;20.30;91.50;;;;;;6197938;23;20493;-80
2022/05/26 13:13:39;;;;;;;8.23;7.63;;;20.20;91.50;;;;;;6196917;23;20474;-80
2022/05/26 13:16:30;;;;;;;10.37;9.27;;;20.10;91.40;;;;;;6197152;23;20786;-79
2022/05/26 13:19:10;;;;;;;8.73;8.03;;;20.00;91.40;;;;;;6195850;23;20514;-79
2022/05/26 13:21:39;;;;;;;9.47;8.60;;;20.00;91.60;;;;;;6199048;23;20422;-80
2022/05/26 13:24:17;;;;;;;9.47;8.77;;;20.00;91.60;;;;;;6198697;23;20844;-80
2022/05/26 13:26:46;;;;;;;9.97;9.17;;;20.00;91.70;;;;;;6238705;23;20405;-80
2022/05/26 13:29:18;;;;;;;8.97;8.27;;;20.00;91.70;;;;;;6237420;23;20434;-79
2022/05/26 13:34:43;;;;;;;9.77;9.07;;;20.00;91.70;;;;;;6203069;23;20426;-80
2022/05/26 13:37:22;;;;;;;9.40;8.60;;;20.00;91.80;;;;;;6236695;23;20469;-80
2022/05/26 13:40:08;;;;;;;9.43;8.63;;;20.00;91.80;;;;;;6208910;23;20414;-80
2022/05/26 13:42:39;;;;;;;9.10;8.23;;;20.00;91.80;;;;;;6204566;23;20476;-80
2022/05/26 13:45:13;;;;;;;9.90;9.00;;;20.00;91.90;;;;;;6242411;23;20379;-80
2022/05/26 13:47:41;;;;;;;9.50;8.80;;;20.10;92.00;;;;;;6205917;23;20399;-80
2022/05/26 13:50:11;;;;;;;9.77;8.87;;;20.10;91.90;;;;;;6241219;23;20395;-80